Haskell, New Jersey
Current Conditions -  °F | °C
As of 10:53 PM on Thursday 18 Dec 2014 (Local Time) from KCDW Reporting Station
Few Clouds Few Clouds  
Wind Chill: 30°   Ceiling: Unl
Heat Index: 37°   Visibility: 10mi
Dew Point: 25°   Wind: 9mph
Humidity: 62%   Direction: 300°WNW
Pressure: 29.98"   Gusts: NA
Location:  41.03°N, 74.3°W
Report Text: KCDW 190353Z AUTO 30008KT 10SM FEW030 03/M04 A2998 RMK AO2 SLP158 T00281039 TSNO
Loading
Personal Weather Stations






























Interactive Weather Map New forecast layout! Learn more

10-Day Weather Forecast

Advertisements
Track Severe Weather on mobile